Time;durP1;ratioP1;P1;durP2;ratioP2;P2;SDS_P1;SDS_P2;PMS_P1;PMS_P2;Temp;Humidity;BMP_temperature;BMP_pressure;BME280_temperature;BME280_humidity;BME280_pressure;Samples;Min_cycle;Max_cycle;Signal;HPM_P1;HPM_P2
2022/06/06 00:01:48;;;;;;;7.78;6.10;;;21.80;99.90;;;;;;5043470;28;20616;-73
2022/06/06 00:04:14;;;;;;;8.27;7.38;;;21.80;99.90;;;;;;5037285;28;20264;-72
2022/06/06 00:06:40;;;;;;;7.15;5.45;;;21.80;99.90;;;;;;5037425;28;20191;-71
2022/06/06 00:09:07;;;;;;;5.72;5.13;;;21.80;99.90;;;;;;5036548;28;20200;-72
2022/06/06 00:11:36;;;;;;;5.85;5.25;;;21.80;99.90;;;;;;5036333;28;20260;-73
2022/06/06 00:14:03;;;;;;;6.53;5.85;;;21.80;99.90;;;;;;5037263;28;20215;-71
2022/06/06 00:16:29;;;;;;;13.55;10.93;;;21.80;99.90;;;;;;5036231;28;20177;-71
2022/06/06 00:18:55;;;;;;;8.00;6.97;;;21.70;99.90;;;;;;5037779;28;20177;-71
2022/06/06 00:21:21;;;;;;;7.47;5.28;;;21.70;99.90;;;;;;5038458;28;20156;-72
2022/06/06 00:23:47;;;;;;;5.72;5.22;;;21.60;99.90;;;;;;5037821;28;20170;-72
2022/06/06 00:26:14;;;;;;;6.85;6.05;;;21.70;99.90;;;;;;5039737;28;20200;-72
2022/06/06 00:28:44;;;;;;;6.18;5.57;;;21.60;99.90;;;;;;5038727;28;20336;-72
2022/06/06 00:36:42;;;;;;;7.50;6.63;;;21.60;99.90;;;;;;5037146;28;20247;-71
2022/06/06 00:39:10;;;;;;;5.85;4.97;;;21.60;99.90;;;;;;5036844;28;20601;-74
2022/06/06 00:41:42;;;;;;;5.65;5.05;;;21.50;99.90;;;;;;5036588;28;20165;-70
2022/06/06 00:44:11;;;;;;;5.47;4.97;;;21.30;99.90;;;;;;5035996;28;20169;-73
2022/06/06 00:46:42;;;;;;;6.20;5.28;;;21.40;99.90;;;;;;5036630;28;20263;-73
2022/06/06 00:49:22;;;;;;;5.95;5.35;;;21.40;99.90;;;;;;5042682;28;20216;-72
2022/06/06 00:51:47;;;;;;;8.82;5.25;;;21.40;99.90;;;;;;5048552;28;20173;-72
2022/06/06 00:54:13;;;;;;;6.68;5.32;;;21.50;99.90;;;;;;5050152;28;20177;-74
2022/06/06 00:56:44;;;;;;;5.43;4.93;;;21.50;99.90;;;;;;5041454;28;20172;-72
2022/06/06 00:59:23;;;;;;;6.20;5.00;;;21.40;99.90;;;;;;5034924;28;20181;-72
2022/06/06 01:01:49;;;;;;;9.20;4.90;;;21.50;99.90;;;;;;5036756;28;20181;-71
2022/06/06 01:04:16;;;;;;;5.30;4.80;;;21.60;99.90;;;;;;5035468;28;20687;-72
2022/06/06 01:06:45;;;;;;;5.00;4.60;;;21.70;99.90;;;;;;5035632;28;20181;-72
2022/06/06 01:09:12;;;;;;;5.93;4.65;;;21.70;99.90;;;;;;5035302;28;20250;-73
2022/06/06 01:11:44;;;;;;;4.80;4.32;;;21.70;99.90;;;;;;5035193;28;20173;-72
2022/06/06 01:14:12;;;;;;;5.53;4.18;;;21.70;99.90;;;;;;5035119;28;20176;-71
2022/06/06 01:16:50;;;;;;;4.30;3.85;;;21.80;99.90;;;;;;5035215;28;20161;-73
2022/06/06 01:19:34;;;;;;;4.40;4.00;;;21.70;99.90;;;;;;5035894;28;20181;-72
2022/06/06 01:22:24;;;;;;;5.38;4.15;;;21.70;99.90;;;;;;5034986;28;20161;-73
2022/06/06 01:25:29;;;;;;;4.43;3.58;;;21.70;99.90;;;;;;5035136;28;20157;-71
2022/06/06 01:28:07;;;;;;;5.65;3.80;;;21.60;99.90;;;;;;5034999;28;20168;-70
2022/06/06 01:30:47;;;;;;;4.43;3.50;;;21.50;99.90;;;;;;5023941;28;20543;-70
2022/06/06 01:33:14;;;;;;;5.40;3.45;;;21.50;99.90;;;;;;5015084;28;20661;-72
2022/06/06 01:35:43;;;;;;;5.82;3.85;;;21.50;99.90;;;;;;5015229;28;20429;-71
2022/06/06 01:38:12;;;;;;;3.90;3.28;;;21.50;99.90;;;;;;5015566;28;20165;-74
2022/06/06 01:40:50;;;;;;;3.70;3.00;;;21.40;99.90;;;;;;5015047;28;20157;-72
2022/06/06 01:43:25;;;;;;;4.03;3.03;;;21.40;99.90;;;;;;5015161;28;20508;-71
2022/06/06 01:45:56;;;;;;;4.22;3.58;;;21.30;99.90;;;;;;5014931;28;20556;-72
2022/06/06 01:48:29;;;;;;;3.63;3.22;;;21.30;99.90;;;;;;5014638;28;20618;-72
2022/06/06 01:50:55;;;;;;;5.93;3.53;;;21.30;99.90;;;;;;5014645;28;20173;-71
2022/06/06 01:53:24;;;;;;;3.05;2.75;;;21.30;99.90;;;;;;5015135;28;20253;-70
2022/06/06 01:55:51;;;;;;;2.88;2.60;;;21.20;99.90;;;;;;5014615;28;20524;-72
2022/06/06 01:58:23;;;;;;;4.18;2.80;;;21.20;99.90;;;;;;5014648;28;20308;-71
2022/06/06 02:00:49;;;;;;;2.50;2.28;;;21.10;99.90;;;;;;5014554;28;20158;-72
2022/06/06 02:03:14;;;;;;;2.80;2.50;;;21.10;99.90;;;;;;5014326;28;20723;-72
2022/06/06 02:05:40;;;;;;;2.40;2.10;;;21.10;99.90;;;;;;5014805;28;20166;-71
2022/06/06 02:08:07;;;;;;;2.50;2.30;;;21.00;99.90;;;;;;5014996;28;20204;-72
2022/06/06 02:10:33;;;;;;;3.78;2.58;;;21.00;99.90;;;;;;5014350;28;20174;-72
2022/06/06 02:12:59;;;;;;;2.03;1.88;;;20.90;99.90;;;;;;5014293;28;20173;-72
2022/06/06 02:15:25;;;;;;;3.22;2.22;;;20.90;99.90;;;;;;5014294;28;20170;-71
2022/06/06 02:17:53;;;;;;;2.20;2.00;;;20.90;99.90;;;;;;5014813;28;20184;-73
2022/06/06 02:20:21;;;;;;;2.42;2.22;;;20.90;99.90;;;;;;5013315;28;20177;-71
2022/06/06 02:22:47;;;;;;;6.22;2.50;;;20.80;99.90;;;;;;5014268;28;20157;-72
2022/06/06 02:25:13;;;;;;;2.63;2.20;;;20.70;99.90;;;;;;5014506;28;20247;-71
2022/06/06 02:27:40;;;;;;;3.15;2.03;;;20.60;99.90;;;;;;5014482;28;20184;-72
2022/06/06 02:30:10;;;;;;;2.30;2.10;;;20.50;99.90;;;;;;5014398;28;20295;-73
2022/06/06 02:32:35;;;;;;;2.28;2.00;;;20.40;99.90;;;;;;5014060;28;20189;-72
2022/06/06 02:35:01;;;;;;;2.90;2.10;;;20.20;99.90;;;;;;5014423;28;20162;-72
2022/06/06 02:37:26;;;;;;;2.42;2.03;;;20.10;99.90;;;;;;5014275;28;20220;-73
2022/06/06 02:39:52;;;;;;;3.25;2.30;;;20.00;99.90;;;;;;5014169;28;20170;-74
2022/06/06 02:42:18;;;;;;;2.50;2.13;;;19.90;99.90;;;;;;5014786;28;20162;-73
2022/06/06 02:44:43;;;;;;;3.78;2.42;;;19.80;99.90;;;;;;5016131;28;20562;-73
2022/06/06 02:47:09;;;;;;;7.93;2.47;;;19.70;99.90;;;;;;5018253;28;20173;-76
2022/06/06 02:49:35;;;;;;;2.20;2.00;;;19.60;99.90;;;;;;5015997;28;20201;-74
2022/06/06 02:52:04;;;;;;;2.78;2.20;;;19.50;99.90;;;;;;5014245;28;20514;-74
2022/06/06 02:54:30;;;;;;;3.63;2.10;;;19.40;99.90;;;;;;5013926;28;20203;-74
2022/06/06 02:56:56;;;;;;;3.55;2.20;;;19.40;99.90;;;;;;5013826;28;20212;-74
2022/06/06 02:59:24;;;;;;;8.43;2.20;;;19.30;99.90;;;;;;5013900;28;20177;-75
2022/06/06 03:01:51;;;;;;;2.60;2.40;;;19.30;99.90;;;;;;5014067;28;20286;-74
2022/06/06 03:04:17;;;;;;;5.28;2.70;;;19.30;99.90;;;;;;5014329;28;20305;-73
2022/06/06 03:06:46;;;;;;;6.22;2.22;;;19.20;99.90;;;;;;5014194;28;20174;-75
2022/06/06 03:09:28;;;;;;;4.25;2.50;;;19.20;99.90;;;;;;5013578;28;20193;-75
2022/06/06 03:12:19;;;;;;;2.35;2.15;;;19.20;99.90;;;;;;5013705;28;20166;-74
2022/06/06 03:15:02;;;;;;;3.25;2.50;;;19.10;99.90;;;;;;5009627;28;20568;-73
2022/06/06 03:20:54;;;;;;;4.18;2.33;;;19.10;99.90;;;;;;5013663;28;20657;-75
2022/06/06 03:23:28;;;;;;;2.80;2.40;;;19.00;99.90;;;;;;5014312;28;20176;-74
2022/06/06 03:26:13;;;;;;;3.22;2.20;;;18.90;99.90;;;;;;5013593;28;20179;-74
2022/06/06 03:29:05;;;;;;;4.43;2.40;;;18.90;99.90;;;;;;5013954;28;20201;-74
2022/06/06 03:31:36;;;;;;;5.38;2.45;;;18.90;99.90;;;;;;5016260;28;20173;-74
2022/06/06 03:34:23;;;;;;;2.53;2.30;;;18.80;99.90;;;;;;5020770;28;20169;-74
2022/06/06 03:37:10;;;;;;;2.85;2.40;;;18.80;99.90;;;;;;5019926;28;20162;-74
2022/06/06 03:40:00;;;;;;;4.50;2.83;;;18.80;99.90;;;;;;5021141;28;20189;-73
2022/06/06 03:42:46;;;;;;;3.90;2.47;;;18.80;99.90;;;;;;5018927;28;20154;-73
2022/06/06 03:45:38;;;;;;;4.10;2.65;;;18.80;99.90;;;;;;5017443;28;20158;-74
2022/06/06 03:48:34;;;;;;;3.40;2.50;;;18.90;99.90;;;;;;5017163;28;20669;-73
2022/06/06 03:51:02;;;;;;;6.13;2.53;;;18.80;99.90;;;;;;5017570;28;20181;-74
2022/06/06 03:53:52;;;;;;;3.55;2.70;;;18.80;99.90;;;;;;5016848;28;20211;-76
2022/06/06 03:56:32;;;;;;;8.10;2.58;;;18.80;99.90;;;;;;5017355;28;20185;-75
2022/06/06 03:58:59;;;;;;;2.78;2.38;;;18.90;99.90;;;;;;5016955;28;20260;-74
2022/06/06 04:01:25;;;;;;;2.50;2.30;;;18.90;99.90;;;;;;5016640;28;20622;-75
2022/06/06 04:03:52;;;;;;;5.00;2.20;;;18.80;99.90;;;;;;5017112;28;20233;-75
2022/06/06 04:06:19;;;;;;;4.25;2.22;;;18.70;99.90;;;;;;5017081;28;20601;-74
2022/06/06 04:08:44;;;;;;;2.63;2.30;;;18.70;99.90;;;;;;5016364;28;20272;-73
2022/06/06 04:11:28;;;;;;;5.25;2.60;;;18.60;99.90;;;;;;5028605;28;20272;-74
2022/06/06 04:14:09;;;;;;;3.92;2.47;;;18.70;99.90;;;;;;5035465;28;20184;-74
2022/06/06 04:16:53;;;;;;;2.88;2.65;;;18.80;99.90;;;;;;5036093;28;20586;-72
2022/06/06 04:19:47;;;;;;;2.85;2.47;;;18.70;99.90;;;;;;5036305;28;20161;-74
2022/06/06 04:22:31;;;;;;;3.15;2.50;;;18.80;99.90;;;;;;5036664;28;20597;-72
2022/06/06 04:25:30;;;;;;;2.50;2.30;;;18.80;99.90;;;;;;5036304;28;20172;-72
2022/06/06 04:28:06;;;;;;;2.92;2.38;;;18.80;99.90;;;;;;5035347;28;20180;-72
2022/06/06 04:30:55;;;;;;;3.22;2.20;;;18.80;99.90;;;;;;5035834;28;20157;-72
2022/06/06 04:33:37;;;;;;;4.75;2.30;;;18.90;99.90;;;;;;5036042;28;20617;-73
2022/06/06 04:36:11;;;;;;;3.30;2.47;;;18.90;99.90;;;;;;5036360;28;20203;-73
2022/06/06 04:38:42;;;;;;;2.80;2.60;;;18.90;99.90;;;;;;5034227;28;20172;-74
2022/06/06 04:41:33;;;;;;;8.60;2.22;;;18.90;99.90;;;;;;5035971;28;20244;-73
2022/06/06 04:43:58;;;;;;;2.85;2.20;;;19.00;99.90;;;;;;5035023;28;20165;-74
2022/06/06 04:46:40;;;;;;;2.58;2.30;;;19.00;99.90;;;;;;5035797;28;20227;-73
2022/06/06 04:49:07;;;;;;;3.92;2.50;;;19.00;99.90;;;;;;5035841;28;20196;-73
2022/06/06 04:51:34;;;;;;;4.63;2.45;;;19.10;99.90;;;;;;5035816;28;20647;-74
2022/06/06 04:54:01;;;;;;;3.97;2.60;;;19.20;99.90;;;;;;5035639;28;20208;-75
2022/06/06 04:56:27;;;;;;;3.42;2.60;;;19.10;99.90;;;;;;5035821;28;20165;-74
2022/06/06 04:58:56;;;;;;;2.88;2.33;;;19.10;99.90;;;;;;5036146;28;20255;-73
2022/06/06 05:01:24;;;;;;;2.30;2.10;;;19.20;99.90;;;;;;5035242;28;20234;-74
2022/06/06 05:03:50;;;;;;;2.42;2.20;;;19.20;99.90;;;;;;5035231;28;20232;-72
2022/06/06 05:06:46;;;;;;;2.85;2.40;;;19.20;99.90;;;;;;5035055;28;20165;-74
2022/06/06 05:09:35;;;;;;;2.40;2.20;;;19.20;99.90;;;;;;5035148;28;20327;-74
2022/06/06 05:12:18;;;;;;;2.40;2.20;;;19.20;99.90;;;;;;5031502;28;20192;-73
2022/06/06 05:15:19;;;;;;;2.72;2.40;;;19.10;99.90;;;;;;5034971;28;20215;-74
2022/06/06 05:18:00;;;;;;;2.38;2.17;;;19.20;99.90;;;;;;5035180;28;20193;-74
2022/06/06 05:20:31;;;;;;;3.60;2.03;;;19.10;99.90;;;;;;5035458;28;20188;-74
2022/06/06 05:23:36;;;;;;;2.25;2.05;;;19.10;99.90;;;;;;5034926;28;20489;-74
2022/06/06 05:26:34;;;;;;;3.20;2.45;;;19.10;99.90;;;;;;5034848;28;20612;-73
2022/06/06 05:29:21;;;;;;;2.40;2.20;;;19.20;99.90;;;;;;5034850;28;20196;-74
2022/06/06 05:32:09;;;;;;;2.75;2.25;;;19.20;99.90;;;;;;5034934;28;20226;-74
2022/06/06 05:34:41;;;;;;;4.30;2.50;;;19.20;99.90;;;;;;5034692;28;20679;-74
2022/06/06 05:37:36;;;;;;;2.30;2.03;;;19.10;99.90;;;;;;5034939;28;20165;-73
2022/06/06 05:40:14;;;;;;;3.20;2.25;;;19.10;99.90;;;;;;5034620;28;20205;-74
2022/06/06 05:43:24;;;;;;;3.22;2.40;;;19.20;99.90;;;;;;5034572;28;20161;-74
2022/06/06 05:46:44;;;;;;;2.42;2.20;;;19.30;99.90;;;;;;5035019;28;20249;-75
2022/06/06 05:49:42;;;;;;;6.78;2.33;;;19.30;99.90;;;;;;5012646;28;20199;-74
2022/06/06 05:52:15;;;;;;;2.45;2.25;;;19.40;99.90;;;;;;5012516;28;20178;-74
2022/06/06 05:54:52;;;;;;;3.75;2.10;;;19.60;99.90;;;;;;5030396;28;20184;-75
2022/06/06 05:57:36;;;;;;;2.40;2.20;;;19.50;99.90;;;;;;5033944;28;20169;-73
2022/06/06 06:00:16;;;;;;;3.25;2.38;;;19.60;99.90;;;;;;5035083;28;20260;-74
2022/06/06 06:02:42;;;;;;;6.97;2.28;;;19.70;99.90;;;;;;5038346;28;20551;-74
2022/06/06 06:05:15;;;;;;;2.53;1.98;;;19.90;99.90;;;;;;5037059;28;20169;-76
2022/06/06 06:07:41;;;;;;;2.38;2.17;;;19.90;99.90;;;;;;5036727;28;20161;-73
2022/06/06 06:10:19;;;;;;;2.20;1.95;;;20.00;99.90;;;;;;5038314;28;20189;-74
2022/06/06 06:13:08;;;;;;;2.45;2.13;;;20.10;99.90;;;;;;5036890;28;20254;-73
2022/06/06 06:15:39;;;;;;;2.30;1.88;;;20.20;99.90;;;;;;5036991;28;20504;-73
2022/06/06 06:18:10;;;;;;;2.25;1.95;;;20.40;99.90;;;;;;5033962;28;20165;-73
2022/06/06 06:20:47;;;;;;;2.13;1.92;;;20.40;99.90;;;;;;5034120;28;20171;-73
2022/06/06 06:23:20;;;;;;;2.83;2.00;;;20.50;99.90;;;;;;5033797;28;20506;-73
2022/06/06 06:25:47;;;;;;;2.17;1.85;;;20.60;99.90;;;;;;5034142;28;20165;-72
2022/06/06 06:28:13;;;;;;;2.03;1.83;;;20.50;99.90;;;;;;5033458;28;20545;-74
2022/06/06 06:31:27;;;;;;;2.28;1.90;;;20.60;99.90;;;;;;5033689;28;20169;-75
2022/06/06 06:34:28;;;;;;;2.17;1.92;;;20.40;99.90;;;;;;5034001;28;20550;-73
2022/06/06 06:37:25;;;;;;;2.00;1.73;;;20.50;99.90;;;;;;5033696;28;20191;-72
2022/06/06 06:40:02;;;;;;;1.77;1.67;;;20.50;99.90;;;;;;5032234;28;20179;-73
2022/06/06 06:42:49;;;;;;;1.75;1.65;;;20.60;99.90;;;;;;5035891;28;20161;-72
2022/06/06 06:45:19;;;;;;;2.30;1.70;;;20.80;99.90;;;;;;5048795;28;20184;-73
2022/06/06 06:47:52;;;;;;;2.67;1.92;;;20.80;99.90;;;;;;5050224;28;20169;-71
2022/06/06 06:50:34;;;;;;;1.70;1.60;;;21.00;99.90;;;;;;5050829;28;20168;-74
2022/06/06 06:53:29;;;;;;;1.75;1.65;;;21.10;99.90;;;;;;5042793;28;20165;-73
2022/06/06 06:56:06;;;;;;;3.15;1.50;;;21.20;99.90;;;;;;5033967;28;20299;-74
2022/06/06 06:58:51;;;;;;;1.73;1.63;;;21.10;99.90;;;;;;5033394;28;20157;-73
2022/06/06 07:01:20;;;;;;;1.75;1.65;;;21.00;99.90;;;;;;5033646;28;20187;-72
2022/06/06 07:10:10;;;;;;;2.80;1.77;;;21.00;99.90;;;;;;5033430;28;20200;-73
2022/06/06 07:12:56;;;;;;;1.67;1.58;;;21.00;99.90;;;;;;5031978;28;20231;-71
2022/06/06 07:15:33;;;;;;;2.65;1.55;;;21.10;99.90;;;;;;5033339;28;20168;-71
2022/06/06 07:18:02;;;;;;;1.90;1.58;;;21.10;99.90;;;;;;5033610;28;20160;-71
2022/06/06 07:20:28;;;;;;;1.75;1.65;;;21.20;99.90;;;;;;5033618;28;20566;-72
2022/06/06 07:23:06;;;;;;;4.78;1.80;;;21.20;99.90;;;;;;5033807;28;20260;-73
2022/06/06 07:25:39;;;;;;;1.65;1.55;;;21.30;99.90;;;;;;5033191;28;20563;-73
2022/06/06 07:28:11;;;;;;;1.98;1.73;;;21.40;99.90;;;;;;5032403;28;20508;-73
2022/06/06 07:30:57;;;;;;;2.15;1.70;;;21.30;99.90;;;;;;5032379;28;20680;-72
2022/06/06 07:33:32;;;;;;;2.83;1.77;;;21.50;99.90;;;;;;5033413;28;20240;-72
2022/06/06 07:36:13;;;;;;;2.15;1.70;;;21.50;99.90;;;;;;5033701;28;20161;-73
2022/06/06 07:38:50;;;;;;;1.70;1.60;;;21.60;99.90;;;;;;5032986;28;20173;-72
2022/06/06 07:41:16;;;;;;;1.90;1.60;;;21.40;99.90;;;;;;5033069;28;20291;-72
2022/06/06 07:44:13;;;;;;;2.25;1.50;;;21.30;99.90;;;;;;5033643;28;20192;-74
2022/06/06 07:47:19;;;;;;;2.17;1.70;;;21.50;99.90;;;;;;5033382;28;20495;-72
2022/06/06 07:49:59;;;;;;;1.88;1.77;;;21.80;99.90;;;;;;5031022;28;20291;-72
2022/06/06 07:52:55;;;;;;;4.38;2.05;;;21.90;99.90;;;;;;5033179;28;20172;-71
2022/06/06 07:55:31;;;;;;;1.65;1.45;;;22.00;99.90;;;;;;5028818;28;20632;-71
2022/06/06 07:58:12;;;;;;;1.67;1.58;;;22.10;99.90;;;;;;5033555;28;20513;-72
2022/06/06 08:00:38;;;;;;;2.15;1.88;;;22.20;99.90;;;;;;5032701;28;20157;-71
2022/06/06 08:03:18;;;;;;;2.00;1.60;;;22.20;99.90;;;;;;5031355;28;20248;-71
2022/06/06 08:06:08;;;;;;;1.95;1.73;;;22.30;99.90;;;;;;5017983;28;20196;-72
2022/06/06 08:08:58;;;;;;;1.73;1.55;;;22.50;99.90;;;;;;5014590;28;20293;-71
2022/06/06 08:11:43;;;;;;;1.60;1.50;;;22.30;99.90;;;;;;5014899;28;20278;-71
2022/06/06 08:14:20;;;;;;;1.85;1.70;;;22.40;99.90;;;;;;5015681;28;20165;-71
2022/06/06 08:17:11;;;;;;;2.88;1.83;;;22.50;99.90;;;;;;5013759;28;20161;-71
2022/06/06 08:19:49;;;;;;;1.92;1.70;;;22.40;99.90;;;;;;5014859;28;20178;-71
2022/06/06 08:22:15;;;;;;;1.98;1.70;;;22.50;99.90;;;;;;5015906;28;20177;-73
2022/06/06 08:24:45;;;;;;;1.60;1.50;;;22.60;99.90;;;;;;5017423;28;20273;-73
2022/06/06 08:27:14;;;;;;;2.10;1.75;;;22.90;99.90;;;;;;5017679;28;20162;-72
2022/06/06 08:29:41;;;;;;;1.52;1.42;;;23.10;99.90;;;;;;5017790;28;20193;-71
2022/06/06 08:32:08;;;;;;;2.33;1.90;;;23.10;99.90;;;;;;5019863;28;20224;-71
2022/06/06 08:34:34;;;;;;;2.22;1.67;;;22.90;99.90;;;;;;5021776;28;20670;-71
2022/06/06 08:37:21;;;;;;;1.60;1.50;;;22.90;99.90;;;;;;5022907;28;20185;-71
2022/06/06 08:40:08;;;;;;;1.80;1.70;;;23.20;99.90;;;;;;5022523;28;20177;-74
2022/06/06 08:43:08;;;;;;;2.58;1.50;;;23.40;99.90;;;;;;5022014;28;20177;-73
2022/06/06 08:46:33;;;;;;;2.22;1.65;;;23.20;99.90;;;;;;5010403;28;20189;-72
2022/06/06 08:50:44;;;;;;;1.65;1.55;;;23.10;99.90;;;;;;5000454;28;20320;-72
2022/06/06 08:52:07;;;;;;;1.50;1.40;;;23.50;99.90;;;;;;5008851;28;20182;-75
2022/06/06 08:54:35;;;;;;;2.85;1.48;;;23.50;99.90;;;;;;5023967;28;20193;-74
2022/06/06 08:57:26;;;;;;;1.75;1.58;;;23.20;99.90;;;;;;5028932;28;20170;-73
2022/06/06 09:00:04;;;;;;;1.70;1.60;;;23.50;99.90;;;;;;5020898;28;20189;-72
2022/06/06 09:03:07;;;;;;;3.95;1.60;;;23.50;99.90;;;;;;5015844;28;20684;-72
2022/06/06 09:05:54;;;;;;;2.35;1.50;;;23.30;99.90;;;;;;5015684;28;20165;-72
2022/06/06 09:08:26;;;;;;;2.55;1.52;;;23.50;99.90;;;;;;5015456;28;20228;-73
2022/06/06 09:11:23;;;;;;;2.75;1.55;;;23.60;99.90;;;;;;5015507;28;20177;-73
2022/06/06 09:14:28;;;;;;;1.77;1.48;;;23.80;99.90;;;;;;5015822;28;20216;-73
2022/06/06 09:17:37;;;;;;;1.70;1.60;;;23.80;99.90;;;;;;5015041;28;20213;-72
2022/06/06 09:20:24;;;;;;;2.22;2.00;;;23.50;99.90;;;;;;5015412;28;20158;-74
2022/06/06 09:22:49;;;;;;;1.60;1.50;;;23.60;99.90;;;;;;5014050;28;20173;-75
2022/06/06 09:25:33;;;;;;;1.80;1.70;;;24.10;99.90;;;;;;5014593;28;20173;-75
2022/06/06 09:28:26;;;;;;;2.13;1.92;;;24.40;99.90;;;;;;5014655;28;20161;-75
2022/06/06 09:31:10;;;;;;;1.90;1.75;;;24.30;99.90;;;;;;5014797;28;20505;-72
2022/06/06 09:33:58;;;;;;;1.92;1.60;;;24.40;99.90;;;;;;5014560;28;20161;-72
2022/06/06 09:36:39;;;;;;;1.63;1.48;;;24.50;99.90;;;;;;5030193;28;20209;-72
2022/06/06 09:39:27;;;;;;;2.67;1.70;;;24.40;99.90;;;;;;5014890;28;20192;-73
2022/06/06 09:42:20;;;;;;;1.88;1.70;;;24.00;99.90;;;;;;5014761;28;20166;-73
2022/06/06 09:44:56;;;;;;;1.88;1.73;;;23.80;99.90;;;;;;5014870;28;20166;-75
2022/06/06 09:47:59;;;;;;;1.80;1.70;;;24.70;99.90;;;;;;5014609;28;20249;-71
2022/06/06 09:50:30;;;;;;;6.15;1.55;;;24.60;99.90;;;;;;5015033;28;20566;-73
2022/06/06 09:53:04;;;;;;;1.90;1.70;;;24.90;99.90;;;;;;5015096;28;20287;-71
2022/06/06 09:59:10;;;;;;;2.30;1.80;;;25.40;99.90;;;;;;5014083;28;20219;-74
2022/06/06 10:02:05;;;;;;;3.38;1.50;;;24.50;99.90;;;;;;5004616;28;20689;-74
2022/06/06 10:04:52;;;;;;;1.60;1.50;;;24.20;99.90;;;;;;5015535;28;20656;-74
2022/06/06 10:07:27;;;;;;;2.65;1.80;;;24.30;99.90;;;;;;5014893;28;20165;-75
2022/06/06 10:10:08;;;;;;;4.03;1.83;;;24.90;99.90;;;;;;5016229;28;20197;-74
2022/06/06 10:13:09;;;;;;;1.75;1.65;;;25.20;99.90;;;;;;5016142;28;20204;-75
2022/06/06 10:16:06;;;;;;;2.05;1.85;;;25.10;99.90;;;;;;5017076;28;20215;-76
2022/06/06 10:18:44;;;;;;;1.63;1.52;;;24.50;99.90;;;;;;5017763;28;20164;-74
2022/06/06 10:21:34;;;;;;;1.40;1.30;;;24.20;99.90;;;;;;5020298;28;20166;-75
2022/06/06 10:24:30;;;;;;;1.73;1.63;;;24.40;99.90;;;;;;5021945;28;20166;-74
2022/06/06 10:27:07;;;;;;;1.73;1.63;;;24.70;99.90;;;;;;5021027;28;20154;-74
2022/06/06 10:30:11;;;;;;;1.67;1.58;;;24.70;99.90;;;;;;5018123;28;20195;-74
2022/06/06 10:33:04;;;;;;;1.70;1.60;;;25.20;99.90;;;;;;5014952;28;20207;-76
2022/06/06 10:35:36;;;;;;;1.67;1.58;;;25.90;99.90;;;;;;5014368;28;20174;-75
2022/06/06 10:38:28;;;;;;;1.50;1.40;;;26.00;99.90;;;;;;5014294;28;20157;-74
2022/06/06 10:41:21;;;;;;;1.75;1.40;;;26.10;99.90;;;;;;5013589;28;20172;-74
2022/06/06 10:43:52;;;;;;;2.67;1.75;;;26.00;99.80;;;;;;5014007;28;20168;-72
2022/06/06 10:46:31;;;;;;;1.50;1.40;;;26.20;98.70;;;;;;5014405;28;20158;-72
2022/06/06 10:49:17;;;;;;;1.90;1.70;;;26.50;98.80;;;;;;5014170;28;20193;-76
2022/06/06 10:51:55;;;;;;;1.70;1.60;;;25.90;99.90;;;;;;5014020;28;20169;-75
2022/06/06 10:54:39;;;;;;;1.50;1.40;;;25.10;99.90;;;;;;5013929;28;20157;-76
2022/06/06 10:57:32;;;;;;;1.75;1.50;;;24.80;99.90;;;;;;5014339;28;20586;-76
2022/06/06 11:00:31;;;;;;;1.50;1.38;;;25.30;99.90;;;;;;5013936;28;20261;-74
2022/06/06 11:03:25;;;;;;;1.85;1.60;;;25.60;99.90;;;;;;5014264;28;20638;-76
2022/06/06 11:06:18;;;;;;;1.58;1.48;;;25.90;99.90;;;;;;5014254;28;20266;-76
2022/06/06 11:09:33;;;;;;;1.65;1.55;;;26.50;99.90;;;;;;5013734;28;20515;-74
2022/06/06 11:12:08;;;;;;;3.17;1.85;;;26.60;98.10;;;;;;5005547;28;20212;-73
2022/06/06 11:14:39;;;;;;;1.88;1.70;;;26.50;99.90;;;;;;5013594;28;20191;-77
2022/06/06 11:17:10;;;;;;;1.63;1.50;;;26.10;99.90;;;;;;5014257;28;20196;-73
2022/06/06 11:19:45;;;;;;;1.50;1.40;;;26.20;99.90;;;;;;5014267;28;20273;-74
2022/06/06 11:22:36;;;;;;;2.53;1.45;;;26.20;99.90;;;;;;5016339;28;20185;-73
2022/06/06 11:25:13;;;;;;;3.58;1.75;;;26.60;99.20;;;;;;5018145;28;20180;-74
2022/06/06 11:28:06;;;;;;;1.70;1.60;;;26.60;97.20;;;;;;5019131;28;20170;-73
2022/06/06 11:30:58;;;;;;;2.47;1.48;;;26.70;97.60;;;;;;5014541;28;20170;-75
2022/06/06 11:33:44;;;;;;;2.08;1.60;;;26.30;99.80;;;;;;5014943;28;20154;-75
2022/06/06 11:36:13;;;;;;;2.65;1.63;;;25.90;99.90;;;;;;5017274;28;20233;-73
2022/06/06 11:39:03;;;;;;;1.58;1.45;;;25.60;99.90;;;;;;5023101;28;20176;-74
2022/06/06 11:41:49;;;;;;;2.53;1.90;;;25.80;99.90;;;;;;5024269;28;20181;-76
2022/06/06 11:44:44;;;;;;;1.92;1.75;;;26.20;99.90;;;;;;5026279;28;20170;-75
2022/06/06 11:47:22;;;;;;;1.73;1.58;;;26.30;98.90;;;;;;5029476;28;20166;-73
2022/06/06 11:50:16;;;;;;;2.38;1.60;;;26.10;99.50;;;;;;5015951;28;20666;-72
2022/06/06 11:52:53;;;;;;;2.67;1.80;;;25.90;99.90;;;;;;4978787;28;20198;-73
2022/06/06 11:55:32;;;;;;;3.65;1.70;;;26.00;99.90;;;;;;5017751;28;20169;-73
2022/06/06 11:58:29;;;;;;;2.22;1.63;;;26.20;99.90;;;;;;5017553;28;20158;-73
2022/06/06 12:01:13;;;;;;;1.95;1.80;;;26.20;99.20;;;;;;5016489;28;20190;-73
2022/06/06 12:04:03;;;;;;;2.25;2.00;;;26.80;96.60;;;;;;5017637;28;20248;-75
2022/06/06 12:06:58;;;;;;;2.00;1.60;;;27.10;97.10;;;;;;5017520;28;20165;-75
2022/06/06 12:09:44;;;;;;;2.67;1.70;;;27.10;95.00;;;;;;5017665;28;20189;-72
2022/06/06 12:12:19;;;;;;;1.90;1.50;;;26.50;90.90;;;;;;5017514;28;20223;-74
2022/06/06 12:15:11;;;;;;;1.73;1.63;;;26.20;94.10;;;;;;5018927;28;20165;-75
2022/06/06 12:18:05;;;;;;;1.55;1.40;;;26.00;92.00;;;;;;5017613;28;20296;-74
2022/06/06 12:21:10;;;;;;;2.28;1.42;;;26.10;92.90;;;;;;5027312;28;20157;-75
2022/06/06 12:23:47;;;;;;;1.73;1.30;;;26.10;92.00;;;;;;5029936;28;20240;-75
2022/06/06 12:26:45;;;;;;;1.95;1.75;;;26.40;91.60;;;;;;5030978;28;20189;-74
2022/06/06 12:29:38;;;;;;;2.65;1.60;;;26.80;90.70;;;;;;5028238;28;20692;-75
2022/06/06 12:32:15;;;;;;;2.42;1.40;;;26.90;91.70;;;;;;5024727;28;20209;-73
2022/06/06 12:34:51;;;;;;;3.10;1.60;;;27.10;90.70;;;;;;5026131;28;20200;-71
2022/06/06 12:37:46;;;;;;;2.35;1.73;;;26.90;91.60;;;;;;5026401;28;20586;-71
2022/06/06 12:40:30;;;;;;;1.92;1.80;;;27.00;93.60;;;;;;5028397;28;20352;-71
2022/06/06 12:43:23;;;;;;;2.30;1.70;;;26.80;93.20;;;;;;5026785;28;20304;-71
2022/06/06 12:46:00;;;;;;;1.83;1.73;;;27.00;89.70;;;;;;5025133;28;20162;-71
2022/06/06 12:48:54;;;;;;;1.85;1.65;;;27.20;89.20;;;;;;5028166;28;20192;-71
2022/06/06 12:51:34;;;;;;;2.13;1.63;;;27.10;89.90;;;;;;5030091;28;20166;-72
2022/06/06 12:55:11;;;;;;;2.38;2.17;;;26.70;82.90;;;;;;5028339;28;20188;-71
2022/06/06 12:57:23;;;;;;;2.03;1.90;;;26.80;91.10;;;;;;5024444;28;20185;-70
2022/06/06 13:00:02;;;;;;;2.35;2.08;;;27.10;84.60;;;;;;5016988;28;20575;-71
2022/06/06 13:02:59;;;;;;;2.08;1.58;;;27.30;87.20;;;;;;5016725;28;20229;-72
2022/06/06 13:05:27;;;;;;;2.83;1.65;;;27.70;84.10;;;;;;5015655;28;20198;-70
2022/06/06 13:08:24;;;;;;;2.13;1.92;;;27.80;82.00;;;;;;5015946;28;20630;-71
2022/06/06 13:11:21;;;;;;;2.47;1.67;;;27.50;81.50;;;;;;5015204;28;20220;-71
2022/06/06 13:13:50;;;;;;;2.83;1.80;;;27.30;87.70;;;;;;5015475;28;20180;-70
2022/06/06 13:16:36;;;;;;;4.25;1.98;;;27.30;86.90;;;;;;5015605;28;20169;-70
2022/06/06 13:19:20;;;;;;;2.40;1.83;;;27.40;81.40;;;;;;5014948;28;20457;-71
2022/06/06 13:22:06;;;;;;;1.63;1.52;;;27.30;78.50;;;;;;5015649;28;20174;-70
2022/06/06 13:24:56;;;;;;;1.67;1.58;;;26.90;75.90;;;;;;5016119;28;20169;-69
2022/06/06 13:27:30;;;;;;;2.13;1.50;;;27.20;77.10;;;;;;5015627;28;20168;-70
2022/06/06 13:30:16;;;;;;;3.25;1.80;;;27.70;78.40;;;;;;5015324;28;20193;-70
2022/06/06 13:33:20;;;;;;;1.88;1.77;;;27.70;76.30;;;;;;5016482;28;20209;-72
2022/06/06 13:36:11;;;;;;;3.20;1.90;;;28.30;76.80;;;;;;5014417;28;20211;-70
2022/06/06 13:39:01;;;;;;;3.72;2.13;;;28.30;74.20;;;;;;5015585;28;20158;-70
2022/06/06 13:41:49;;;;;;;2.00;1.80;;;28.00;71.00;;;;;;5015774;28;20260;-71
2022/06/06 13:44:23;;;;;;;1.63;1.52;;;27.80;75.20;;;;;;5015644;28;20172;-70
2022/06/06 13:47:26;;;;;;;2.30;1.48;;;27.30;75.10;;;;;;5015338;28;20165;-69
2022/06/06 13:50:13;;;;;;;2.33;1.60;;;26.80;74.20;;;;;;5015513;28;20193;-71
2022/06/06 13:53:16;;;;;;;3.33;1.75;;;26.60;71.20;;;;;;5015385;28;20559;-70
2022/06/06 13:55:42;;;;;;;3.38;1.95;;;26.80;73.60;;;;;;5017390;28;20165;-71
2022/06/06 13:58:13;;;;;;;1.75;1.63;;;26.70;79.30;;;;;;5018755;28;20174;-69
2022/06/06 14:01:05;;;;;;;2.00;1.80;;;26.50;80.90;;;;;;5021538;28;20652;-71
2022/06/06 14:03:49;;;;;;;1.58;1.48;;;26.40;79.20;;;;;;5020494;28;20233;-70
2022/06/06 14:06:20;;;;;;;3.80;1.80;;;26.30;78.50;;;;;;5020992;28;20193;-70
2022/06/06 14:08:50;;;;;;;2.22;1.75;;;26.20;78.60;;;;;;5021820;28;20538;-71
2022/06/06 14:11:32;;;;;;;1.80;1.60;;;26.10;79.30;;;;;;5015308;28;20165;-71
2022/06/06 14:14:01;;;;;;;1.58;1.48;;;26.20;77.50;;;;;;5015472;28;20649;-70